sensor_id;sensor_type;location;lat;lon;timestamp;P1;durP1;ratioP1;P2;durP2;ratioP2
65572;SDS011;52214;50.940;13.996;2023-05-10T00:02:07;4.77;;;2.57;;
65572;SDS011;52214;50.940;13.996;2023-05-10T00:04:33;4.43;;;2.70;;
65572;SDS011;52214;50.940;13.996;2023-05-10T00:06:58;4.30;;;2.40;;
65572;SDS011;52214;50.940;13.996;2023-05-10T00:09:24;5.53;;;2.80;;
65572;SDS011;52214;50.940;13.996;2023-05-10T00:11:50;4.03;;;2.38;;
65572;SDS011;52214;50.940;13.996;2023-05-10T00:14:16;4.40;;;2.60;;
65572;SDS011;52214;50.940;13.996;2023-05-10T00:16:42;5.70;;;2.40;;
65572;SDS011;52214;50.940;13.996;2023-05-10T00:19:08;4.95;;;2.50;;
65572;SDS011;52214;50.940;13.996;2023-05-10T00:21:33;4.50;;;2.57;;
65572;SDS011;52214;50.940;13.996;2023-05-10T00:23:59;4.90;;;2.73;;
65572;SDS011;52214;50.940;13.996;2023-05-10T00:26:25;4.53;;;2.50;;
65572;SDS011;52214;50.940;13.996;2023-05-10T00:31:38;6.25;;;2.40;;
65572;SDS011;52214;50.940;13.996;2023-05-10T00:34:04;4.47;;;2.50;;
65572;SDS011;52214;50.940;13.996;2023-05-10T00:36:29;4.75;;;2.60;;
65572;SDS011;52214;50.940;13.996;2023-05-10T00:38:56;5.07;;;2.70;;
65572;SDS011;52214;50.940;13.996;2023-05-10T00:41:22;4.50;;;2.40;;
65572;SDS011;52214;50.940;13.996;2023-05-10T00:43:47;4.97;;;2.50;;
65572;SDS011;52214;50.940;13.996;2023-05-10T00:46:14;5.40;;;2.45;;
65572;SDS011;52214;50.940;13.996;2023-05-10T00:48:41;4.87;;;2.70;;
65572;SDS011;52214;50.940;13.996;2023-05-10T00:51:08;4.10;;;2.47;;
65572;SDS011;52214;50.940;13.996;2023-05-10T00:53:35;4.55;;;2.45;;
65572;SDS011;52214;50.940;13.996;2023-05-10T00:56:00;5.80;;;3.03;;
65572;SDS011;52214;50.940;13.996;2023-05-10T00:58:28;4.80;;;2.50;;
65572;SDS011;52214;50.940;13.996;2023-05-10T01:00:55;4.85;;;2.58;;
65572;SDS011;52214;50.940;13.996;2023-05-10T01:03:22;4.50;;;2.40;;
65572;SDS011;52214;50.940;13.996;2023-05-10T01:05:48;4.27;;;2.63;;
65572;SDS011;52214;50.940;13.996;2023-05-10T01:08:13;4.90;;;2.70;;
65572;SDS011;52214;50.940;13.996;2023-05-10T01:10:39;4.87;;;2.43;;
65572;SDS011;52214;50.940;13.996;2023-05-10T01:13:06;4.32;;;2.20;;
65572;SDS011;52214;50.940;13.996;2023-05-10T01:15:32;4.13;;;2.25;;
65572;SDS011;52214;50.940;13.996;2023-05-10T01:17:59;5.07;;;2.90;;
65572;SDS011;52214;50.940;13.996;2023-05-10T01:20:26;3.72;;;2.20;;
65572;SDS011;52214;50.940;13.996;2023-05-10T01:23:06;5.10;;;2.70;;
65572;SDS011;52214;50.940;13.996;2023-05-10T01:25:56;4.72;;;2.50;;
65572;SDS011;52214;50.940;13.996;2023-05-10T01:28:51;5.50;;;2.40;;
65572;SDS011;52214;50.940;13.996;2023-05-10T01:31:30;4.70;;;2.63;;
65572;SDS011;52214;50.940;13.996;2023-05-10T01:34:09;4.72;;;2.40;;
65572;SDS011;52214;50.940;13.996;2023-05-10T01:36:43;4.97;;;2.47;;
65572;SDS011;52214;50.940;13.996;2023-05-10T01:39:24;4.45;;;2.40;;
65572;SDS011;52214;50.940;13.996;2023-05-10T01:42:10;4.32;;;2.53;;
65572;SDS011;52214;50.940;13.996;2023-05-10T01:44:41;4.57;;;2.50;;
65572;SDS011;52214;50.940;13.996;2023-05-10T01:47:15;4.85;;;2.40;;
65572;SDS011;52214;50.940;13.996;2023-05-10T01:49:53;4.50;;;2.50;;
65572;SDS011;52214;50.940;13.996;2023-05-10T01:55:07;5.10;;;2.70;;
65572;SDS011;52214;50.940;13.996;2023-05-10T01:57:36;4.23;;;2.43;;
65572;SDS011;52214;50.940;13.996;2023-05-10T02:00:04;5.00;;;2.47;;
65572;SDS011;52214;50.940;13.996;2023-05-10T02:02:35;5.53;;;2.70;;
65572;SDS011;52214;50.940;13.996;2023-05-10T02:05:03;4.00;;;2.30;;
65572;SDS011;52214;50.940;13.996;2023-05-10T02:07:31;4.55;;;2.50;;
65572;SDS011;52214;50.940;13.996;2023-05-10T02:09:59;5.20;;;2.67;;
65572;SDS011;52214;50.940;13.996;2023-05-10T02:12:28;4.47;;;2.60;;
65572;SDS011;52214;50.940;13.996;2023-05-10T02:14:55;4.30;;;2.42;;
65572;SDS011;52214;50.940;13.996;2023-05-10T02:17:22;4.68;;;2.70;;
65572;SDS011;52214;50.940;13.996;2023-05-10T02:19:50;5.25;;;2.60;;
65572;SDS011;52214;50.940;13.996;2023-05-10T02:22:18;4.73;;;2.83;;
65572;SDS011;52214;50.940;13.996;2023-05-10T02:24:45;4.75;;;2.28;;
65572;SDS011;52214;50.940;13.996;2023-05-10T02:27:13;4.80;;;2.60;;
65572;SDS011;52214;50.940;13.996;2023-05-10T02:29:40;4.90;;;2.53;;
65572;SDS011;52214;50.940;13.996;2023-05-10T02:32:07;4.47;;;2.60;;
65572;SDS011;52214;50.940;13.996;2023-05-10T02:34:35;5.07;;;2.50;;
65572;SDS011;52214;50.940;13.996;2023-05-10T02:37:01;4.55;;;2.63;;
65572;SDS011;52214;50.940;13.996;2023-05-10T02:39:28;3.95;;;2.30;;
65572;SDS011;52214;50.940;13.996;2023-05-10T02:41:56;5.20;;;2.58;;
65572;SDS011;52214;50.940;13.996;2023-05-10T02:44:23;4.43;;;2.50;;
65572;SDS011;52214;50.940;13.996;2023-05-10T02:46:52;4.47;;;2.50;;
65572;SDS011;52214;50.940;13.996;2023-05-10T02:49:21;4.28;;;2.38;;
65572;SDS011;52214;50.940;13.996;2023-05-10T02:51:48;4.63;;;2.70;;
65572;SDS011;52214;50.940;13.996;2023-05-10T02:54:20;4.53;;;2.40;;
65572;SDS011;52214;50.940;13.996;2023-05-10T02:56:58;4.63;;;2.13;;
65572;SDS011;52214;50.940;13.996;2023-05-10T02:59:26;4.93;;;2.50;;
65572;SDS011;52214;50.940;13.996;2023-05-10T03:01:52;5.72;;;2.67;;
65572;SDS011;52214;50.940;13.996;2023-05-10T03:04:18;4.17;;;2.40;;
65572;SDS011;52214;50.940;13.996;2023-05-10T03:06:43;4.47;;;2.50;;
65572;SDS011;52214;50.940;13.996;2023-05-10T03:09:10;4.45;;;2.42;;
65572;SDS011;52214;50.940;13.996;2023-05-10T03:11:47;4.35;;;2.38;;
65572;SDS011;52214;50.940;13.996;2023-05-10T03:14:39;4.30;;;2.35;;
65572;SDS011;52214;50.940;13.996;2023-05-10T03:22:38;4.82;;;2.50;;
65572;SDS011;52214;50.940;13.996;2023-05-10T03:25:10;4.60;;;2.53;;
65572;SDS011;52214;50.940;13.996;2023-05-10T03:27:39;4.57;;;2.72;;
65572;SDS011;52214;50.940;13.996;2023-05-10T03:30:08;4.82;;;2.40;;
65572;SDS011;52214;50.940;13.996;2023-05-10T03:32:37;4.07;;;2.33;;
65572;SDS011;52214;50.940;13.996;2023-05-10T03:35:06;5.28;;;2.47;;
65572;SDS011;52214;50.940;13.996;2023-05-10T03:37:33;4.38;;;2.40;;
65572;SDS011;52214;50.940;13.996;2023-05-10T03:40:00;4.57;;;2.50;;
65572;SDS011;52214;50.940;13.996;2023-05-10T03:42:26;4.60;;;2.33;;
65572;SDS011;52214;50.940;13.996;2023-05-10T03:44:52;5.45;;;2.80;;
65572;SDS011;52214;50.940;13.996;2023-05-10T03:47:17;4.57;;;2.57;;
65572;SDS011;52214;50.940;13.996;2023-05-10T03:49:43;4.90;;;2.43;;
65572;SDS011;52214;50.940;13.996;2023-05-10T03:52:08;4.43;;;2.65;;
65572;SDS011;52214;50.940;13.996;2023-05-10T03:54:34;4.50;;;2.40;;
65572;SDS011;52214;50.940;13.996;2023-05-10T03:57:00;4.95;;;2.63;;
65572;SDS011;52214;50.940;13.996;2023-05-10T03:59:26;4.60;;;2.60;;
65572;SDS011;52214;50.940;13.996;2023-05-10T04:01:52;5.07;;;2.60;;
65572;SDS011;52214;50.940;13.996;2023-05-10T04:04:17;4.43;;;2.30;;
65572;SDS011;52214;50.940;13.996;2023-05-10T04:06:43;4.65;;;2.47;;
65572;SDS011;52214;50.940;13.996;2023-05-10T04:09:10;5.13;;;2.42;;
65572;SDS011;52214;50.940;13.996;2023-05-10T04:11:35;4.53;;;2.43;;
65572;SDS011;52214;50.940;13.996;2023-05-10T04:14:01;5.10;;;2.60;;
65572;SDS011;52214;50.940;13.996;2023-05-10T04:16:27;4.87;;;2.57;;
65572;SDS011;52214;50.940;13.996;2023-05-10T04:18:52;4.80;;;2.45;;
65572;SDS011;52214;50.940;13.996;2023-05-10T04:21:18;4.80;;;2.75;;
65572;SDS011;52214;50.940;13.996;2023-05-10T04:23:44;4.47;;;2.60;;
65572;SDS011;52214;50.940;13.996;2023-05-10T04:26:10;4.10;;;2.40;;
65572;SDS011;52214;50.940;13.996;2023-05-10T04:28:36;4.55;;;2.10;;
65572;SDS011;52214;50.940;13.996;2023-05-10T04:31:02;4.40;;;2.40;;
65572;SDS011;52214;50.940;13.996;2023-05-10T04:33:32;4.32;;;2.33;;
65572;SDS011;52214;50.940;13.996;2023-05-10T04:35:58;5.13;;;2.65;;
65572;SDS011;52214;50.940;13.996;2023-05-10T04:38:23;4.90;;;2.60;;
65572;SDS011;52214;50.940;13.996;2023-05-10T04:40:49;4.40;;;2.22;;
65572;SDS011;52214;50.940;13.996;2023-05-10T04:43:15;4.47;;;2.50;;
65572;SDS011;52214;50.940;13.996;2023-05-10T04:45:41;4.70;;;2.55;;
65572;SDS011;52214;50.940;13.996;2023-05-10T04:48:07;4.47;;;2.47;;
65572;SDS011;52214;50.940;13.996;2023-05-10T04:50:32;4.95;;;2.83;;
65572;SDS011;52214;50.940;13.996;2023-05-10T04:52:58;4.80;;;2.80;;
65572;SDS011;52214;50.940;13.996;2023-05-10T04:55:24;5.82;;;2.60;;
65572;SDS011;52214;50.940;13.996;2023-05-10T04:57:51;4.25;;;2.20;;
65572;SDS011;52214;50.940;13.996;2023-05-10T05:00:18;4.50;;;2.60;;
65572;SDS011;52214;50.940;13.996;2023-05-10T05:02:44;4.73;;;2.50;;
65572;SDS011;52214;50.940;13.996;2023-05-10T05:05:11;4.45;;;2.40;;
65572;SDS011;52214;50.940;13.996;2023-05-10T05:07:37;4.15;;;2.30;;
65572;SDS011;52214;50.940;13.996;2023-05-10T05:10:06;5.10;;;2.58;;
65572;SDS011;52214;50.940;13.996;2023-05-10T05:12:32;4.70;;;2.83;;
65572;SDS011;52214;50.940;13.996;2023-05-10T05:14:58;4.50;;;2.47;;
65572;SDS011;52214;50.940;13.996;2023-05-10T05:17:23;4.90;;;2.60;;
65572;SDS011;52214;50.940;13.996;2023-05-10T05:19:49;4.45;;;2.50;;
65572;SDS011;52214;50.940;13.996;2023-05-10T05:22:15;5.50;;;2.63;;
65572;SDS011;52214;50.940;13.996;2023-05-10T05:24:40;4.23;;;2.57;;
65572;SDS011;52214;50.940;13.996;2023-05-10T05:27:06;4.40;;;2.40;;
65572;SDS011;52214;50.940;13.996;2023-05-10T05:29:32;4.35;;;2.35;;
65572;SDS011;52214;50.940;13.996;2023-05-10T05:31:58;4.35;;;2.47;;
65572;SDS011;52214;50.940;13.996;2023-05-10T05:34:24;4.80;;;2.40;;
65572;SDS011;52214;50.940;13.996;2023-05-10T05:36:50;5.45;;;2.50;;
65572;SDS011;52214;50.940;13.996;2023-05-10T05:39:16;5.60;;;2.50;;
65572;SDS011;52214;50.940;13.996;2023-05-10T05:41:41;4.38;;;2.42;;
65572;SDS011;52214;50.940;13.996;2023-05-10T05:44:07;4.27;;;2.50;;
65572;SDS011;52214;50.940;13.996;2023-05-10T05:46:33;4.70;;;2.60;;
65572;SDS011;52214;50.940;13.996;2023-05-10T05:49:00;4.57;;;2.40;;
65572;SDS011;52214;50.940;13.996;2023-05-10T05:51:25;4.10;;;2.23;;
65572;SDS011;52214;50.940;13.996;2023-05-10T05:53:51;4.00;;;2.22;;
65572;SDS011;52214;50.940;13.996;2023-05-10T05:56:16;4.40;;;2.30;;
65572;SDS011;52214;50.940;13.996;2023-05-10T05:58:49;4.78;;;2.35;;
65572;SDS011;52214;50.940;13.996;2023-05-10T06:01:15;4.30;;;2.57;;
65572;SDS011;52214;50.940;13.996;2023-05-10T06:03:41;3.70;;;2.15;;
65572;SDS011;52214;50.940;13.996;2023-05-10T06:06:07;5.70;;;2.60;;
65572;SDS011;52214;50.940;13.996;2023-05-10T06:08:33;3.70;;;2.23;;
65572;SDS011;52214;50.940;13.996;2023-05-10T06:10:59;4.30;;;2.30;;
65572;SDS011;52214;50.940;13.996;2023-05-10T06:13:26;4.57;;;2.53;;
65572;SDS011;52214;50.940;13.996;2023-05-10T06:15:57;6.00;;;2.40;;
65572;SDS011;52214;50.940;13.996;2023-05-10T06:18:24;4.85;;;2.45;;
65572;SDS011;52214;50.940;13.996;2023-05-10T06:20:50;4.30;;;2.20;;
65572;SDS011;52214;50.940;13.996;2023-05-10T06:23:16;4.85;;;2.40;;
65572;SDS011;52214;50.940;13.996;2023-05-10T06:25:42;4.60;;;2.53;;
65572;SDS011;52214;50.940;13.996;2023-05-10T06:28:07;4.47;;;2.40;;
65572;SDS011;52214;50.940;13.996;2023-05-10T06:30:33;4.60;;;2.53;;
65572;SDS011;52214;50.940;13.996;2023-05-10T06:33:01;4.55;;;2.45;;
65572;SDS011;52214;50.940;13.996;2023-05-10T06:35:27;5.28;;;2.60;;
65572;SDS011;52214;50.940;13.996;2023-05-10T06:37:53;4.33;;;2.50;;
65572;SDS011;52214;50.940;13.996;2023-05-10T06:40:19;4.25;;;2.30;;
65572;SDS011;52214;50.940;13.996;2023-05-10T06:42:46;4.75;;;2.67;;
65572;SDS011;52214;50.940;13.996;2023-05-10T06:45:12;4.20;;;2.20;;
65572;SDS011;52214;50.940;13.996;2023-05-10T06:47:39;4.57;;;2.50;;
65572;SDS011;52214;50.940;13.996;2023-05-10T06:50:06;4.20;;;2.42;;
65572;SDS011;52214;50.940;13.996;2023-05-10T06:52:33;4.40;;;2.50;;
65572;SDS011;52214;50.940;13.996;2023-05-10T06:54:58;4.47;;;2.33;;
65572;SDS011;52214;50.940;13.996;2023-05-10T06:57:24;5.25;;;2.28;;
65572;SDS011;52214;50.940;13.996;2023-05-10T06:59:49;4.80;;;2.60;;
65572;SDS011;52214;50.940;13.996;2023-05-10T07:02:15;4.30;;;2.55;;
65572;SDS011;52214;50.940;13.996;2023-05-10T07:04:41;3.77;;;2.30;;
65572;SDS011;52214;50.940;13.996;2023-05-10T07:07:07;4.57;;;2.25;;
65572;SDS011;52214;50.940;13.996;2023-05-10T07:09:33;5.43;;;2.70;;
65572;SDS011;52214;50.940;13.996;2023-05-10T07:11:59;4.30;;;2.40;;
65572;SDS011;52214;50.940;13.996;2023-05-10T07:14:26;4.95;;;2.42;;
65572;SDS011;52214;50.940;13.996;2023-05-10T07:16:52;4.50;;;2.47;;
65572;SDS011;52214;50.940;13.996;2023-05-10T07:19:18;4.53;;;2.50;;
65572;SDS011;52214;50.940;13.996;2023-05-10T07:21:44;4.90;;;2.35;;
65572;SDS011;52214;50.940;13.996;2023-05-10T07:24:10;4.18;;;2.40;;
65572;SDS011;52214;50.940;13.996;2023-05-10T07:26:36;4.53;;;2.40;;
65572;SDS011;52214;50.940;13.996;2023-05-10T07:29:02;4.30;;;2.33;;
65572;SDS011;52214;50.940;13.996;2023-05-10T07:31:27;4.03;;;2.50;;
65572;SDS011;52214;50.940;13.996;2023-05-10T07:33:53;4.15;;;2.47;;
65572;SDS011;52214;50.940;13.996;2023-05-10T07:36:18;4.93;;;2.57;;
65572;SDS011;52214;50.940;13.996;2023-05-10T07:38:44;4.50;;;2.50;;
65572;SDS011;52214;50.940;13.996;2023-05-10T07:41:11;4.20;;;2.58;;
65572;SDS011;52214;50.940;13.996;2023-05-10T07:43:37;4.50;;;2.40;;
65572;SDS011;52214;50.940;13.996;2023-05-10T07:46:03;4.30;;;2.38;;
65572;SDS011;52214;50.940;13.996;2023-05-10T07:48:29;4.60;;;2.40;;
65572;SDS011;52214;50.940;13.996;2023-05-10T07:50:54;3.95;;;2.30;;
65572;SDS011;52214;50.940;13.996;2023-05-10T07:53:20;4.57;;;2.53;;
65572;SDS011;52214;50.940;13.996;2023-05-10T07:58:47;4.57;;;2.58;;
65572;SDS011;52214;50.940;13.996;2023-05-10T08:01:13;4.03;;;2.10;;
65572;SDS011;52214;50.940;13.996;2023-05-10T08:03:39;4.67;;;2.23;;
65572;SDS011;52214;50.940;13.996;2023-05-10T08:06:04;4.20;;;2.42;;
65572;SDS011;52214;50.940;13.996;2023-05-10T08:08:31;4.13;;;2.22;;
65572;SDS011;52214;50.940;13.996;2023-05-10T08:10:56;4.20;;;2.50;;
65572;SDS011;52214;50.940;13.996;2023-05-10T08:13:22;4.78;;;2.60;;
65572;SDS011;52214;50.940;13.996;2023-05-10T08:15:48;4.30;;;2.35;;
65572;SDS011;52214;50.940;13.996;2023-05-10T08:18:13;4.63;;;2.50;;
65572;SDS011;52214;50.940;13.996;2023-05-10T08:20:39;4.10;;;2.33;;
65572;SDS011;52214;50.940;13.996;2023-05-10T08:23:04;4.13;;;2.40;;
65572;SDS011;52214;50.940;13.996;2023-05-10T08:25:31;4.60;;;2.20;;
65572;SDS011;52214;50.940;13.996;2023-05-10T08:27:56;4.93;;;2.45;;
65572;SDS011;52214;50.940;13.996;2023-05-10T08:30:22;4.73;;;2.50;;
65572;SDS011;52214;50.940;13.996;2023-05-10T08:32:48;4.70;;;2.30;;
65572;SDS011;52214;50.940;13.996;2023-05-10T08:35:13;4.23;;;2.50;;
65572;SDS011;52214;50.940;13.996;2023-05-10T08:37:39;4.50;;;2.20;;
65572;SDS011;52214;50.940;13.996;2023-05-10T08:40:04;4.30;;;2.22;;
65572;SDS011;52214;50.940;13.996;2023-05-10T08:42:30;4.00;;;2.20;;
65572;SDS011;52214;50.940;13.996;2023-05-10T08:45:02;4.20;;;2.03;;
65572;SDS011;52214;50.940;13.996;2023-05-10T08:47:29;4.03;;;2.40;;
65572;SDS011;52214;50.940;13.996;2023-05-10T08:49:55;4.10;;;2.08;;
65572;SDS011;52214;50.940;13.996;2023-05-10T08:52:24;3.80;;;2.00;;
65572;SDS011;52214;50.940;13.996;2023-05-10T08:54:53;3.83;;;2.10;;
65572;SDS011;52214;50.940;13.996;2023-05-10T08:57:19;4.17;;;2.17;;
65572;SDS011;52214;50.940;13.996;2023-05-10T08:59:45;4.10;;;2.20;;
65572;SDS011;52214;50.940;13.996;2023-05-10T09:02:11;4.27;;;2.23;;
65572;SDS011;52214;50.940;13.996;2023-05-10T09:04:38;4.15;;;2.03;;
65572;SDS011;52214;50.940;13.996;2023-05-10T09:07:04;4.10;;;2.10;;
65572;SDS011;52214;50.940;13.996;2023-05-10T09:09:31;4.40;;;2.10;;
65572;SDS011;52214;50.940;13.996;2023-05-10T09:11:57;4.57;;;2.13;;
65572;SDS011;52214;50.940;13.996;2023-05-10T09:14:23;4.28;;;2.28;;
65572;SDS011;52214;50.940;13.996;2023-05-10T09:16:49;4.50;;;2.40;;
65572;SDS011;52214;50.940;13.996;2023-05-10T09:19:15;4.10;;;2.00;;
65572;SDS011;52214;50.940;13.996;2023-05-10T09:21:41;4.20;;;2.10;;
65572;SDS011;52214;50.940;13.996;2023-05-10T09:24:07;4.00;;;2.20;;
65572;SDS011;52214;50.940;13.996;2023-05-10T09:26:34;3.90;;;2.13;;
65572;SDS011;52214;50.940;13.996;2023-05-10T09:29:03;4.25;;;2.10;;
65572;SDS011;52214;50.940;13.996;2023-05-10T09:31:46;4.45;;;2.10;;
65572;SDS011;52214;50.940;13.996;2023-05-10T09:34:17;3.73;;;2.00;;
65572;SDS011;52214;50.940;13.996;2023-05-10T09:36:51;4.28;;;2.00;;
65572;SDS011;52214;50.940;13.996;2023-05-10T09:39:19;4.65;;;2.10;;
65572;SDS011;52214;50.940;13.996;2023-05-10T09:41:45;3.70;;;2.20;;
65572;SDS011;52214;50.940;13.996;2023-05-10T09:44:14;4.32;;;2.20;;
65572;SDS011;52214;50.940;13.996;2023-05-10T09:46:48;4.37;;;2.30;;
65572;SDS011;52214;50.940;13.996;2023-05-10T09:49:15;4.05;;;2.50;;
65572;SDS011;52214;50.940;13.996;2023-05-10T09:51:41;4.20;;;2.30;;
65572;SDS011;52214;50.940;13.996;2023-05-10T09:54:14;4.37;;;2.17;;
65572;SDS011;52214;50.940;13.996;2023-05-10T09:56:41;4.00;;;1.98;;
65572;SDS011;52214;50.940;13.996;2023-05-10T09:59:09;3.53;;;2.00;;
65572;SDS011;52214;50.940;13.996;2023-05-10T10:01:36;3.78;;;2.10;;
65572;SDS011;52214;50.940;13.996;2023-05-10T10:04:03;3.92;;;2.20;;
65572;SDS011;52214;50.940;13.996;2023-05-10T10:06:34;4.28;;;2.25;;
65572;SDS011;52214;50.940;13.996;2023-05-10T10:09:02;4.60;;;2.00;;
65572;SDS011;52214;50.940;13.996;2023-05-10T10:11:27;5.33;;;2.00;;
65572;SDS011;52214;50.940;13.996;2023-05-10T10:13:54;4.20;;;2.28;;
65572;SDS011;52214;50.940;13.996;2023-05-10T10:16:20;3.97;;;2.10;;
65572;SDS011;52214;50.940;13.996;2023-05-10T10:18:46;3.73;;;1.80;;
65572;SDS011;52214;50.940;13.996;2023-05-10T10:21:13;4.35;;;2.13;;
65572;SDS011;52214;50.940;13.996;2023-05-10T10:23:40;4.68;;;2.20;;
65572;SDS011;52214;50.940;13.996;2023-05-10T10:26:05;4.10;;;2.10;;
65572;SDS011;52214;50.940;13.996;2023-05-10T10:28:39;4.18;;;2.17;;
65572;SDS011;52214;50.940;13.996;2023-05-10T10:31:17;3.55;;;1.80;;
65572;SDS011;52214;50.940;13.996;2023-05-10T10:34:05;3.60;;;1.80;;
65572;SDS011;52214;50.940;13.996;2023-05-10T10:36:36;3.83;;;2.08;;
65572;SDS011;52214;50.940;13.996;2023-05-10T10:39:08;3.67;;;1.97;;
65572;SDS011;52214;50.940;13.996;2023-05-10T10:41:37;3.60;;;1.90;;
65572;SDS011;52214;50.940;13.996;2023-05-10T10:44:25;4.40;;;2.03;;
65572;SDS011;52214;50.940;13.996;2023-05-10T10:47:00;4.25;;;1.90;;
65572;SDS011;52214;50.940;13.996;2023-05-10T10:49:28;3.78;;;2.00;;
65572;SDS011;52214;50.940;13.996;2023-05-10T10:52:13;3.90;;;2.00;;
65572;SDS011;52214;50.940;13.996;2023-05-10T11:13:06;3.97;;;2.00;;
65572;SDS011;52214;50.940;13.996;2023-05-10T11:15:33;3.83;;;2.10;;
65572;SDS011;52214;50.940;13.996;2023-05-10T11:18:15;3.83;;;2.00;;
65572;SDS011;52214;50.940;13.996;2023-05-10T11:20:43;3.97;;;1.88;;
65572;SDS011;52214;50.940;13.996;2023-05-10T11:23:11;3.88;;;2.00;;
65572;SDS011;52214;50.940;13.996;2023-05-10T11:25:41;4.07;;;2.00;;
65572;SDS011;52214;50.940;13.996;2023-05-10T11:28:08;4.07;;;2.20;;
65572;SDS011;52214;50.940;13.996;2023-05-10T11:30:34;3.70;;;1.92;;
65572;SDS011;52214;50.940;13.996;2023-05-10T11:33:01;3.95;;;2.15;;
65572;SDS011;52214;50.940;13.996;2023-05-10T11:35:27;3.70;;;1.83;;
65572;SDS011;52214;50.940;13.996;2023-05-10T11:37:53;3.90;;;1.92;;
65572;SDS011;52214;50.940;13.996;2023-05-10T11:40:18;3.90;;;1.92;;
65572;SDS011;52214;50.940;13.996;2023-05-10T11:42:46;4.13;;;1.90;;
65572;SDS011;52214;50.940;13.996;2023-05-10T11:45:12;4.63;;;2.00;;
65572;SDS011;52214;50.940;13.996;2023-05-10T11:47:38;3.95;;;2.00;;
65572;SDS011;52214;50.940;13.996;2023-05-10T11:50:04;3.60;;;1.90;;
65572;SDS011;52214;50.940;13.996;2023-05-10T11:52:35;3.60;;;1.83;;
65572;SDS011;52214;50.940;13.996;2023-05-10T11:55:02;4.45;;;2.03;;
65572;SDS011;52214;50.940;13.996;2023-05-10T11:57:28;3.58;;;2.03;;
65572;SDS011;52214;50.940;13.996;2023-05-10T11:59:54;3.60;;;1.90;;
65572;SDS011;52214;50.940;13.996;2023-05-10T12:02:21;4.28;;;2.10;;
65572;SDS011;52214;50.940;13.996;2023-05-10T12:04:47;4.20;;;2.10;;
65572;SDS011;52214;50.940;13.996;2023-05-10T12:07:12;3.63;;;1.80;;
65572;SDS011;52214;50.940;13.996;2023-05-10T12:09:42;3.60;;;2.00;;
65572;SDS011;52214;50.940;13.996;2023-05-10T12:12:10;3.50;;;1.90;;
65572;SDS011;52214;50.940;13.996;2023-05-10T12:14:41;3.40;;;1.75;;
65572;SDS011;52214;50.940;13.996;2023-05-10T12:17:11;3.67;;;1.87;;
65572;SDS011;52214;50.940;13.996;2023-05-10T12:19:37;3.88;;;2.00;;
65572;SDS011;52214;50.940;13.996;2023-05-10T12:22:04;4.00;;;2.00;;
65572;SDS011;52214;50.940;13.996;2023-05-10T12:24:33;3.53;;;1.80;;
65572;SDS011;52214;50.940;13.996;2023-05-10T12:27:04;3.60;;;1.87;;
65572;SDS011;52214;50.940;13.996;2023-05-10T12:29:33;3.88;;;1.90;;
65572;SDS011;52214;50.940;13.996;2023-05-10T12:31:59;3.40;;;1.75;;
65572;SDS011;52214;50.940;13.996;2023-05-10T12:34:26;3.90;;;1.93;;
65572;SDS011;52214;50.940;13.996;2023-05-10T12:36:56;3.60;;;2.05;;
65572;SDS011;52214;50.940;13.996;2023-05-10T12:39:22;3.53;;;1.85;;
65572;SDS011;52214;50.940;13.996;2023-05-10T12:41:48;4.57;;;2.00;;
65572;SDS011;52214;50.940;13.996;2023-05-10T12:44:17;3.60;;;1.80;;
65572;SDS011;52214;50.940;13.996;2023-05-10T12:46:43;3.22;;;1.73;;
65572;SDS011;52214;50.940;13.996;2023-05-10T12:49:09;4.60;;;1.93;;
65572;SDS011;52214;50.940;13.996;2023-05-10T12:51:35;3.90;;;1.83;;
65572;SDS011;52214;50.940;13.996;2023-05-10T12:54:02;3.75;;;2.08;;
65572;SDS011;52214;50.940;13.996;2023-05-10T12:56:28;3.80;;;1.90;;
65572;SDS011;52214;50.940;13.996;2023-05-10T12:58:54;3.65;;;1.77;;
65572;SDS011;52214;50.940;13.996;2023-05-10T13:01:19;4.07;;;1.90;;
65572;SDS011;52214;50.940;13.996;2023-05-10T13:03:45;3.85;;;1.70;;
65572;SDS011;52214;50.940;13.996;2023-05-10T13:06:11;3.50;;;1.97;;
65572;SDS011;52214;50.940;13.996;2023-05-10T13:08:38;3.60;;;2.00;;
65572;SDS011;52214;50.940;13.996;2023-05-10T13:11:04;4.27;;;1.80;;
65572;SDS011;52214;50.940;13.996;2023-05-10T13:13:30;4.07;;;1.90;;
65572;SDS011;52214;50.940;13.996;2023-05-10T13:15:56;4.00;;;1.83;;
65572;SDS011;52214;50.940;13.996;2023-05-10T13:18:21;4.00;;;2.00;;
65572;SDS011;52214;50.940;13.996;2023-05-10T13:20:47;3.40;;;1.63;;
65572;SDS011;52214;50.940;13.996;2023-05-10T13:23:14;4.20;;;1.92;;
65572;SDS011;52214;50.940;13.996;2023-05-10T13:25:40;3.40;;;1.70;;
65572;SDS011;52214;50.940;13.996;2023-05-10T13:28:05;4.53;;;1.97;;
65572;SDS011;52214;50.940;13.996;2023-05-10T13:30:31;4.00;;;1.90;;
65572;SDS011;52214;50.940;13.996;2023-05-10T13:32:56;3.65;;;1.90;;
65572;SDS011;52214;50.940;13.996;2023-05-10T13:35:22;3.60;;;1.80;;
65572;SDS011;52214;50.940;13.996;2023-05-10T13:37:48;3.50;;;1.90;;
65572;SDS011;52214;50.940;13.996;2023-05-10T13:40:14;3.43;;;1.80;;
65572;SDS011;52214;50.940;13.996;2023-05-10T13:42:40;4.03;;;1.90;;
65572;SDS011;52214;50.940;13.996;2023-05-10T13:45:07;3.72;;;1.98;;
65572;SDS011;52214;50.940;13.996;2023-05-10T13:47:33;3.70;;;2.03;;
65572;SDS011;52214;50.940;13.996;2023-05-10T13:49:58;3.97;;;1.93;;
65572;SDS011;52214;50.940;13.996;2023-05-10T13:52:24;3.23;;;1.73;;
65572;SDS011;52214;50.940;13.996;2023-05-10T13:54:49;4.22;;;2.00;;
65572;SDS011;52214;50.940;13.996;2023-05-10T13:57:18;3.65;;;1.80;;
65572;SDS011;52214;50.940;13.996;2023-05-10T13:59:43;3.60;;;2.00;;
65572;SDS011;52214;50.940;13.996;2023-05-10T14:02:09;3.75;;;1.90;;
65572;SDS011;52214;50.940;13.996;2023-05-10T14:04:37;3.40;;;1.80;;
65572;SDS011;52214;50.940;13.996;2023-05-10T14:07:02;3.37;;;1.80;;
65572;SDS011;52214;50.940;13.996;2023-05-10T14:09:28;3.50;;;1.80;;
65572;SDS011;52214;50.940;13.996;2023-05-10T14:11:54;3.42;;;1.70;;
65572;SDS011;52214;50.940;13.996;2023-05-10T14:14:21;3.60;;;1.80;;
65572;SDS011;52214;50.940;13.996;2023-05-10T14:16:46;3.72;;;1.95;;
65572;SDS011;52214;50.940;13.996;2023-05-10T14:19:12;3.73;;;1.70;;
65572;SDS011;52214;50.940;13.996;2023-05-10T14:21:37;3.33;;;1.67;;
65572;SDS011;52214;50.940;13.996;2023-05-10T14:24:03;3.50;;;1.70;;
65572;SDS011;52214;50.940;13.996;2023-05-10T14:26:29;3.63;;;1.92;;
65572;SDS011;52214;50.940;13.996;2023-05-10T14:28:55;3.90;;;2.03;;
65572;SDS011;52214;50.940;13.996;2023-05-10T14:31:21;4.00;;;2.05;;
65572;SDS011;52214;50.940;13.996;2023-05-10T14:33:48;3.80;;;1.90;;
65572;SDS011;52214;50.940;13.996;2023-05-10T14:36:14;3.50;;;1.70;;
65572;SDS011;52214;50.940;13.996;2023-05-10T14:38:40;4.07;;;2.20;;
65572;SDS011;52214;50.940;13.996;2023-05-10T14:41:05;3.67;;;1.70;;
65572;SDS011;52214;50.940;13.996;2023-05-10T14:43:31;3.50;;;1.67;;
65572;SDS011;52214;50.940;13.996;2023-05-10T14:45:57;3.80;;;1.75;;
65572;SDS011;52214;50.940;13.996;2023-05-10T14:48:23;3.22;;;1.58;;
65572;SDS011;52214;50.940;13.996;2023-05-10T14:50:48;3.87;;;1.80;;
65572;SDS011;52214;50.940;13.996;2023-05-10T14:53:15;3.40;;;1.85;;
65572;SDS011;52214;50.940;13.996;2023-05-10T14:55:42;3.53;;;1.90;;
65572;SDS011;52214;50.940;13.996;2023-05-10T14:58:07;3.60;;;1.87;;
65572;SDS011;52214;50.940;13.996;2023-05-10T15:00:33;3.75;;;1.83;;
65572;SDS011;52214;50.940;13.996;2023-05-10T15:03:02;3.30;;;1.70;;
65572;SDS011;52214;50.940;13.996;2023-05-10T15:05:28;3.65;;;1.73;;
65572;SDS011;52214;50.940;13.996;2023-05-10T15:07:54;3.50;;;1.77;;